sensor_id;sensor_type;location;lat;lon;timestamp;temperature;humidity
44047;DHT22;29713;-33.888;151.150;2022-09-17T00:01:18;22.10;97.50
44047;DHT22;29713;-33.888;151.150;2022-09-17T00:03:49;22.10;97.30
44047;DHT22;29713;-33.888;151.150;2022-09-17T00:06:18;22.20;97.50
44047;DHT22;29713;-33.888;151.150;2022-09-17T00:08:45;22.30;97.50
44047;DHT22;29713;-33.888;151.150;2022-09-17T00:11:16;22.50;96.80
44047;DHT22;29713;-33.888;151.150;2022-09-17T00:13:44;22.70;96.90
44047;DHT22;29713;-33.888;151.150;2022-09-17T00:16:11;22.80;97.00
44047;DHT22;29713;-33.888;151.150;2022-09-17T00:18:39;22.90;96.80
44047;DHT22;29713;-33.888;151.150;2022-09-17T00:21:14;23.00;96.10
44047;DHT22;29713;-33.888;151.150;2022-09-17T00:23:42;23.10;96.30
44047;DHT22;29713;-33.888;151.150;2022-09-17T00:26:10;23.30;95.20
44047;DHT22;29713;-33.888;151.150;2022-09-17T00:28:38;23.20;94.70
44047;DHT22;29713;-33.888;151.150;2022-09-17T00:31:08;23.30;94.10
44047;DHT22;29713;-33.888;151.150;2022-09-17T00:33:35;23.30;94.80
44047;DHT22;29713;-33.888;151.150;2022-09-17T00:36:04;23.20;93.60
44047;DHT22;29713;-33.888;151.150;2022-09-17T00:38:32;23.20;93.80
44047;DHT22;29713;-33.888;151.150;2022-09-17T00:41:01;23.40;94.10
44047;DHT22;29713;-33.888;151.150;2022-09-17T00:43:41;23.30;93.50
44047;DHT22;29713;-33.888;151.150;2022-09-17T00:46:28;23.40;94.30
44047;DHT22;29713;-33.888;151.150;2022-09-17T00:48:59;23.50;93.20
44047;DHT22;29713;-33.888;151.150;2022-09-17T00:51:35;23.50;93.40
44047;DHT22;29713;-33.888;151.150;2022-09-17T00:54:05;23.40;93.40
44047;DHT22;29713;-33.888;151.150;2022-09-17T00:56:36;23.30;93.50
44047;DHT22;29713;-33.888;151.150;2022-09-17T00:59:05;23.20;94.10
44047;DHT22;29713;-33.888;151.150;2022-09-17T01:01:34;23.20;93.60
44047;DHT22;29713;-33.888;151.150;2022-09-17T01:04:01;23.00;94.40
44047;DHT22;29713;-33.888;151.150;2022-09-17T01:09:20;22.80;94.40
44047;DHT22;29713;-33.888;151.150;2022-09-17T01:31:53;22.10;98.20
44047;DHT22;29713;-33.888;151.150;2022-09-17T01:45:26;23.40;94.20
44047;DHT22;29713;-33.888;151.150;2022-09-17T01:50:44;23.60;93.80
44047;DHT22;29713;-33.888;151.150;2022-09-17T01:53:16;23.90;94.30
44047;DHT22;29713;-33.888;151.150;2022-09-17T01:55:47;24.30;93.00
44047;DHT22;29713;-33.888;151.150;2022-09-17T01:58:27;24.20;92.70
44047;DHT22;29713;-33.888;151.150;2022-09-17T02:01:00;24.30;92.80
44047;DHT22;29713;-33.888;151.150;2022-09-17T02:03:43;24.60;93.70
44047;DHT22;29713;-33.888;151.150;2022-09-17T02:06:16;24.50;94.50
44047;DHT22;29713;-33.888;151.150;2022-09-17T02:08:53;24.10;96.00
44047;DHT22;29713;-33.888;151.150;2022-09-17T02:11:22;23.60;95.20
44047;DHT22;29713;-33.888;151.150;2022-09-17T02:14:02;22.90;99.90
44047;DHT22;29713;-33.888;151.150;2022-09-17T02:16:33;22.10;99.90
44047;DHT22;29713;-33.888;151.150;2022-09-17T02:19:31;21.40;99.90
44047;DHT22;29713;-33.888;151.150;2022-09-17T02:24:48;20.50;99.90
44047;DHT22;29713;-33.888;151.150;2022-09-17T02:27:25;21.30;99.90
44047;DHT22;29713;-33.888;151.150;2022-09-17T02:29:56;22.50;99.90
44047;DHT22;29713;-33.888;151.150;2022-09-17T02:32:24;23.10;99.90
44047;DHT22;29713;-33.888;151.150;2022-09-17T02:34:51;23.90;99.90
44047;DHT22;29713;-33.888;151.150;2022-09-17T02:37:21;24.50;99.90
44047;DHT22;29713;-33.888;151.150;2022-09-17T02:39:49;24.90;99.90
44047;DHT22;29713;-33.888;151.150;2022-09-17T02:50:29;25.30;97.80
44047;DHT22;29713;-33.888;151.150;2022-09-17T02:53:27;25.00;98.30
44047;DHT22;29713;-33.888;151.150;2022-09-17T02:56:09;25.10;97.80
44047;DHT22;29713;-33.888;151.150;2022-09-17T02:58:45;25.10;95.20
44047;DHT22;29713;-33.888;151.150;2022-09-17T03:02:01;25.30;95.80
44047;DHT22;29713;-33.888;151.150;2022-09-17T03:04:12;24.80;96.30
44047;DHT22;29713;-33.888;151.150;2022-09-17T03:06:44;24.40;96.80
44047;DHT22;29713;-33.888;151.150;2022-09-17T03:09:15;24.30;96.90
44047;DHT22;29713;-33.888;151.150;2022-09-17T03:11:42;24.20;98.20
44047;DHT22;29713;-33.888;151.150;2022-09-17T03:14:09;24.10;97.90
44047;DHT22;29713;-33.888;151.150;2022-09-17T03:16:37;23.70;97.40
44047;DHT22;29713;-33.888;151.150;2022-09-17T03:19:04;23.20;97.80
44047;DHT22;29713;-33.888;151.150;2022-09-17T03:21:31;22.70;97.90
44047;DHT22;29713;-33.888;151.150;2022-09-17T03:23:59;22.40;99.60
44047;DHT22;29713;-33.888;151.150;2022-09-17T03:26:26;21.40;99.90
44047;DHT22;29713;-33.888;151.150;2022-09-17T03:28:54;20.70;99.90
44047;DHT22;29713;-33.888;151.150;2022-09-17T03:31:21;20.50;99.90
44047;DHT22;29713;-33.888;151.150;2022-09-17T03:33:49;20.80;99.90
44047;DHT22;29713;-33.888;151.150;2022-09-17T03:36:16;21.90;99.90
44047;DHT22;29713;-33.888;151.150;2022-09-17T03:38:43;22.90;99.90
44047;DHT22;29713;-33.888;151.150;2022-09-17T03:41:11;23.80;99.90
44047;DHT22;29713;-33.888;151.150;2022-09-17T03:43:38;24.30;99.90
44047;DHT22;29713;-33.888;151.150;2022-09-17T03:46:06;24.60;99.90
44047;DHT22;29713;-33.888;151.150;2022-09-17T03:48:33;25.30;99.90
44047;DHT22;29713;-33.888;151.150;2022-09-17T03:51:02;25.70;99.90
44047;DHT22;29713;-33.888;151.150;2022-09-17T03:53:30;26.30;99.90
44047;DHT22;29713;-33.888;151.150;2022-09-17T03:56:01;26.40;99.90
44047;DHT22;29713;-33.888;151.150;2022-09-17T03:58:30;26.60;99.90
44047;DHT22;29713;-33.888;151.150;2022-09-17T04:00:57;26.50;99.90
44047;DHT22;29713;-33.888;151.150;2022-09-17T04:03:26;26.30;98.60
44047;DHT22;29713;-33.888;151.150;2022-09-17T04:05:54;26.60;99.90
44047;DHT22;29713;-33.888;151.150;2022-09-17T04:08:22;26.90;98.50
44047;DHT22;29713;-33.888;151.150;2022-09-17T04:10:52;26.80;99.00
44047;DHT22;29713;-33.888;151.150;2022-09-17T04:13:20;26.70;97.40
44047;DHT22;29713;-33.888;151.150;2022-09-17T04:15:47;26.40;96.70
44047;DHT22;29713;-33.888;151.150;2022-09-17T04:18:14;25.70;96.40
44047;DHT22;29713;-33.888;151.150;2022-09-17T04:20:42;25.00;95.70
44047;DHT22;29713;-33.888;151.150;2022-09-17T04:23:11;24.40;96.90
44047;DHT22;29713;-33.888;151.150;2022-09-17T04:25:38;24.40;97.80
44047;DHT22;29713;-33.888;151.150;2022-09-17T04:28:06;24.60;96.60
44047;DHT22;29713;-33.888;151.150;2022-09-17T04:30:33;24.80;95.80
44047;DHT22;29713;-33.888;151.150;2022-09-17T04:33:01;25.00;95.70
44047;DHT22;29713;-33.888;151.150;2022-09-17T04:35:28;25.60;95.70
44047;DHT22;29713;-33.888;151.150;2022-09-17T04:37:59;25.70;94.80
44047;DHT22;29713;-33.888;151.150;2022-09-17T04:40:27;25.70;93.20
44047;DHT22;29713;-33.888;151.150;2022-09-17T04:42:56;25.40;94.60
44047;DHT22;29713;-33.888;151.150;2022-09-17T04:45:29;25.30;93.50
44047;DHT22;29713;-33.888;151.150;2022-09-17T04:47:58;25.70;94.60
44047;DHT22;29713;-33.888;151.150;2022-09-17T04:50:26;26.10;93.70
44047;DHT22;29713;-33.888;151.150;2022-09-17T04:52:54;26.20;91.40
44047;DHT22;29713;-33.888;151.150;2022-09-17T04:55:21;26.20;91.50
44047;DHT22;29713;-33.888;151.150;2022-09-17T04:57:53;26.10;90.00
44047;DHT22;29713;-33.888;151.150;2022-09-17T05:00:21;25.70;91.60
44047;DHT22;29713;-33.888;151.150;2022-09-17T05:02:52;25.60;89.10
44047;DHT22;29713;-33.888;151.150;2022-09-17T05:05:20;25.50;89.60
44047;DHT22;29713;-33.888;151.150;2022-09-17T05:07:47;25.40;90.30
44047;DHT22;29713;-33.888;151.150;2022-09-17T05:10:17;25.40;90.80
44047;DHT22;29713;-33.888;151.150;2022-09-17T05:12:52;25.30;90.30
44047;DHT22;29713;-33.888;151.150;2022-09-17T05:15:20;25.10;89.90
44047;DHT22;29713;-33.888;151.150;2022-09-17T05:17:48;25.10;90.00
44047;DHT22;29713;-33.888;151.150;2022-09-17T05:20:16;25.20;90.00
44047;DHT22;29713;-33.888;151.150;2022-09-17T05:22:48;25.10;90.00
44047;DHT22;29713;-33.888;151.150;2022-09-17T05:25:19;24.90;90.80
44047;DHT22;29713;-33.888;151.150;2022-09-17T05:27:50;24.40;90.50
44047;DHT22;29713;-33.888;151.150;2022-09-17T05:30:18;23.90;90.30
44047;DHT22;29713;-33.888;151.150;2022-09-17T05:32:45;23.60;91.80
44047;DHT22;29713;-33.888;151.150;2022-09-17T05:35:13;23.50;91.80
44047;DHT22;29713;-33.888;151.150;2022-09-17T05:37:40;23.60;91.10
44047;DHT22;29713;-33.888;151.150;2022-09-17T05:40:08;24.30;91.10
44047;DHT22;29713;-33.888;151.150;2022-09-17T05:42:35;24.40;89.00
44047;DHT22;29713;-33.888;151.150;2022-09-17T05:45:03;24.40;90.10
44047;DHT22;29713;-33.888;151.150;2022-09-17T05:47:31;24.50;87.00
44047;DHT22;29713;-33.888;151.150;2022-09-17T05:49:58;24.40;88.00
44047;DHT22;29713;-33.888;151.150;2022-09-17T05:52:29;24.20;86.70
44047;DHT22;29713;-33.888;151.150;2022-09-17T05:54:56;23.80;86.40
44047;DHT22;29713;-33.888;151.150;2022-09-17T05:57:24;23.30;87.20
44047;DHT22;29713;-33.888;151.150;2022-09-17T05:59:54;22.80;88.40
44047;DHT22;29713;-33.888;151.150;2022-09-17T06:02:21;22.50;89.30
44047;DHT22;29713;-33.888;151.150;2022-09-17T06:04:49;22.70;89.70
44047;DHT22;29713;-33.888;151.150;2022-09-17T06:07:16;22.80;89.20
44047;DHT22;29713;-33.888;151.150;2022-09-17T06:09:43;22.70;90.30
44047;DHT22;29713;-33.888;151.150;2022-09-17T06:12:10;22.60;90.20
44047;DHT22;29713;-33.888;151.150;2022-09-17T06:14:38;22.40;90.10
44047;DHT22;29713;-33.888;151.150;2022-09-17T06:17:05;22.40;90.20
44047;DHT22;29713;-33.888;151.150;2022-09-17T06:19:32;22.60;90.30
44047;DHT22;29713;-33.888;151.150;2022-09-17T06:22:00;22.70;91.40
44047;DHT22;29713;-33.888;151.150;2022-09-17T06:24:27;23.10;90.20
44047;DHT22;29713;-33.888;151.150;2022-09-17T06:26:54;23.20;88.80
44047;DHT22;29713;-33.888;151.150;2022-09-17T06:29:22;23.20;85.20
44047;DHT22;29713;-33.888;151.150;2022-09-17T06:31:49;23.10;85.00
44047;DHT22;29713;-33.888;151.150;2022-09-17T06:34:17;23.00;85.50
44047;DHT22;29713;-33.888;151.150;2022-09-17T06:36:44;22.90;85.70
44047;DHT22;29713;-33.888;151.150;2022-09-17T06:39:12;22.70;87.60
44047;DHT22;29713;-33.888;151.150;2022-09-17T06:41:41;22.30;90.10
44047;DHT22;29713;-33.888;151.150;2022-09-17T06:44:09;22.10;90.80
44047;DHT22;29713;-33.888;151.150;2022-09-17T06:46:36;21.90;90.70
44047;DHT22;29713;-33.888;151.150;2022-09-17T06:49:03;21.80;90.20
44047;DHT22;29713;-33.888;151.150;2022-09-17T06:51:31;21.80;91.00
44047;DHT22;29713;-33.888;151.150;2022-09-17T06:53:59;21.70;90.60
44047;DHT22;29713;-33.888;151.150;2022-09-17T06:56:26;21.70;90.90
44047;DHT22;29713;-33.888;151.150;2022-09-17T06:58:54;21.70;90.80
44047;DHT22;29713;-33.888;151.150;2022-09-17T07:01:21;21.60;90.70
44047;DHT22;29713;-33.888;151.150;2022-09-17T07:03:48;21.40;91.60
44047;DHT22;29713;-33.888;151.150;2022-09-17T07:06:16;21.20;90.60
44047;DHT22;29713;-33.888;151.150;2022-09-17T07:08:43;20.90;91.00
44047;DHT22;29713;-33.888;151.150;2022-09-17T07:11:10;20.70;91.30
44047;DHT22;29713;-33.888;151.150;2022-09-17T07:13:41;20.50;91.60
44047;DHT22;29713;-33.888;151.150;2022-09-17T07:16:09;20.30;91.80
44047;DHT22;29713;-33.888;151.150;2022-09-17T07:18:37;20.20;91.80
44047;DHT22;29713;-33.888;151.150;2022-09-17T07:21:06;20.00;92.20
44047;DHT22;29713;-33.888;151.150;2022-09-17T07:23:35;19.90;92.50
44047;DHT22;29713;-33.888;151.150;2022-09-17T07:26:14;19.80;92.30
44047;DHT22;29713;-33.888;151.150;2022-09-17T07:28:42;19.70;92.30
44047;DHT22;29713;-33.888;151.150;2022-09-17T07:31:11;19.70;92.80
44047;DHT22;29713;-33.888;151.150;2022-09-17T07:33:39;19.50;92.60
44047;DHT22;29713;-33.888;151.150;2022-09-17T07:36:12;19.40;92.30
44047;DHT22;29713;-33.888;151.150;2022-09-17T07:38:40;19.30;93.00
44047;DHT22;29713;-33.888;151.150;2022-09-17T07:41:12;19.30;93.50
44047;DHT22;29713;-33.888;151.150;2022-09-17T07:43:40;19.20;93.20
44047;DHT22;29713;-33.888;151.150;2022-09-17T07:46:16;19.20;93.80
44047;DHT22;29713;-33.888;151.150;2022-09-17T07:48:44;19.10;93.90
44047;DHT22;29713;-33.888;151.150;2022-09-17T07:51:20;19.00;93.90
44047;DHT22;29713;-33.888;151.150;2022-09-17T07:53:51;19.00;94.80
44047;DHT22;29713;-33.888;151.150;2022-09-17T07:56:18;19.00;94.20
44047;DHT22;29713;-33.888;151.150;2022-09-17T07:58:46;19.00;94.80
44047;DHT22;29713;-33.888;151.150;2022-09-17T08:01:14;19.00;95.10
44047;DHT22;29713;-33.888;151.150;2022-09-17T08:03:51;19.00;95.00
44047;DHT22;29713;-33.888;151.150;2022-09-17T08:06:23;18.90;94.70
44047;DHT22;29713;-33.888;151.150;2022-09-17T08:08:58;18.80;94.80
44047;DHT22;29713;-33.888;151.150;2022-09-17T08:11:29;18.80;94.90
44047;DHT22;29713;-33.888;151.150;2022-09-17T08:13:56;18.70;94.30
44047;DHT22;29713;-33.888;151.150;2022-09-17T08:16:24;18.70;93.90
44047;DHT22;29713;-33.888;151.150;2022-09-17T08:18:56;18.60;93.80
44047;DHT22;29713;-33.888;151.150;2022-09-17T08:21:23;18.60;94.00
44047;DHT22;29713;-33.888;151.150;2022-09-17T08:23:51;18.50;94.30
44047;DHT22;29713;-33.888;151.150;2022-09-17T08:26:20;18.50;95.00
44047;DHT22;29713;-33.888;151.150;2022-09-17T08:28:52;18.50;95.50
44047;DHT22;29713;-33.888;151.150;2022-09-17T08:31:22;18.40;95.90
44047;DHT22;29713;-33.888;151.150;2022-09-17T08:33:50;18.20;96.40
44047;DHT22;29713;-33.888;151.150;2022-09-17T08:36:18;18.20;96.80
44047;DHT22;29713;-33.888;151.150;2022-09-17T08:38:46;18.20;97.10
44047;DHT22;29713;-33.888;151.150;2022-09-17T08:47:07;18.20;98.80
44047;DHT22;29713;-33.888;151.150;2022-09-17T09:01:26;18.10;98.20
44047;DHT22;29713;-33.888;151.150;2022-09-17T09:07:08;17.80;98.20
44047;DHT22;29713;-33.888;151.150;2022-09-17T09:09:44;17.70;98.70
44047;DHT22;29713;-33.888;151.150;2022-09-17T09:12:17;17.70;99.00
44047;DHT22;29713;-33.888;151.150;2022-09-17T09:17:34;17.50;99.00
44047;DHT22;29713;-33.888;151.150;2022-09-17T09:20:02;17.50;99.30
44047;DHT22;29713;-33.888;151.150;2022-09-17T09:22:49;17.50;99.30
44047;DHT22;29713;-33.888;151.150;2022-09-17T09:25:18;17.40;99.40
44047;DHT22;29713;-33.888;151.150;2022-09-17T09:33:16;17.30;99.90
44047;DHT22;29713;-33.888;151.150;2022-09-17T09:35:44;17.30;99.90
44047;DHT22;29713;-33.888;151.150;2022-09-17T09:38:42;17.30;99.90
44047;DHT22;29713;-33.888;151.150;2022-09-17T09:41:15;17.30;99.90
44047;DHT22;29713;-33.888;151.150;2022-09-17T09:57:47;17.00;99.90
44047;DHT22;29713;-33.888;151.150;2022-09-17T10:00:30;17.00;99.90
44047;DHT22;29713;-33.888;151.150;2022-09-17T10:03:03;17.00;99.90
44047;DHT22;29713;-33.888;151.150;2022-09-17T10:05:35;16.90;99.90
44047;DHT22;29713;-33.888;151.150;2022-09-17T10:08:13;16.90;99.90
44047;DHT22;29713;-33.888;151.150;2022-09-17T10:11:01;16.90;99.90
44047;DHT22;29713;-33.888;151.150;2022-09-17T10:13:32;16.90;99.90
44047;DHT22;29713;-33.888;151.150;2022-09-17T10:19:17;16.90;99.90
44047;DHT22;29713;-33.888;151.150;2022-09-17T10:21:45;16.90;99.90
44047;DHT22;29713;-33.888;151.150;2022-09-17T10:24:23;16.80;99.90
44047;DHT22;29713;-33.888;151.150;2022-09-17T10:26:51;16.80;99.90
44047;DHT22;29713;-33.888;151.150;2022-09-17T10:29:29;16.90;99.90
44047;DHT22;29713;-33.888;151.150;2022-09-17T10:31:57;16.90;99.90
44047;DHT22;29713;-33.888;151.150;2022-09-17T10:34:27;16.90;99.90
44047;DHT22;29713;-33.888;151.150;2022-09-17T10:36:55;16.90;99.90
44047;DHT22;29713;-33.888;151.150;2022-09-17T10:39:38;16.90;99.90
44047;DHT22;29713;-33.888;151.150;2022-09-17T10:42:15;16.90;99.90
44047;DHT22;29713;-33.888;151.150;2022-09-17T10:44:56;16.90;99.90
44047;DHT22;29713;-33.888;151.150;2022-09-17T10:47:29;16.90;99.90
44047;DHT22;29713;-33.888;151.150;2022-09-17T10:50:00;16.90;99.90
44047;DHT22;29713;-33.888;151.150;2022-09-17T10:52:38;16.90;99.90
44047;DHT22;29713;-33.888;151.150;2022-09-17T10:57:52;16.80;99.90
44047;DHT22;29713;-33.888;151.150;2022-09-17T11:00:24;16.80;99.90
44047;DHT22;29713;-33.888;151.150;2022-09-17T11:11:50;16.60;99.90
44047;DHT22;29713;-33.888;151.150;2022-09-17T11:20:19;16.60;99.90
44047;DHT22;29713;-33.888;151.150;2022-09-17T11:40:47;16.40;99.90
44047;DHT22;29713;-33.888;151.150;2022-09-17T11:43:25;16.40;99.90
44047;DHT22;29713;-33.888;151.150;2022-09-17T11:49:04;16.30;99.90
44047;DHT22;29713;-33.888;151.150;2022-09-17T11:54:05;16.20;99.90
44047;DHT22;29713;-33.888;151.150;2022-09-17T11:56:41;16.30;99.90
44047;DHT22;29713;-33.888;151.150;2022-09-17T11:59:34;16.20;99.90
44047;DHT22;29713;-33.888;151.150;2022-09-17T12:02:23;16.20;99.90
44047;DHT22;29713;-33.888;151.150;2022-09-17T12:16:31;16.00;99.90
44047;DHT22;29713;-33.888;151.150;2022-09-17T12:21:42;16.00;99.90
44047;DHT22;29713;-33.888;151.150;2022-09-17T12:24:27;16.00;99.90
44047;DHT22;29713;-33.888;151.150;2022-09-17T12:30:05;16.00;99.90
44047;DHT22;29713;-33.888;151.150;2022-09-17T12:32:43;16.00;99.90
44047;DHT22;29713;-33.888;151.150;2022-09-17T12:35:39;16.00;99.90
44047;DHT22;29713;-33.888;151.150;2022-09-17T13:02:20;16.00;99.90
44047;DHT22;29713;-33.888;151.150;2022-09-17T13:05:20;16.00;99.90
44047;DHT22;29713;-33.888;151.150;2022-09-17T13:21:53;16.00;99.90
44047;DHT22;29713;-33.888;151.150;2022-09-17T13:24:28;16.00;99.90
44047;DHT22;29713;-33.888;151.150;2022-09-17T13:26:58;16.00;99.90
44047;DHT22;29713;-33.888;151.150;2022-09-17T13:40:28;16.00;99.90
44047;DHT22;29713;-33.888;151.150;2022-09-17T13:43:12;16.00;99.90
44047;DHT22;29713;-33.888;151.150;2022-09-17T13:48:33;16.00;99.90
44047;DHT22;29713;-33.888;151.150;2022-09-17T13:54:05;16.10;99.90
44047;DHT22;29713;-33.888;151.150;2022-09-17T13:56:42;16.10;99.90
44047;DHT22;29713;-33.888;151.150;2022-09-17T13:59:27;16.00;99.90
44047;DHT22;29713;-33.888;151.150;2022-09-17T14:04:47;16.10;99.90
44047;DHT22;29713;-33.888;151.150;2022-09-17T14:09:58;16.00;99.90
44047;DHT22;29713;-33.888;151.150;2022-09-17T14:15:33;16.00;99.90
44047;DHT22;29713;-33.888;151.150;2022-09-17T14:18:31;16.00;99.90
44047;DHT22;29713;-33.888;151.150;2022-09-17T14:20:49;16.00;99.90
44047;DHT22;29713;-33.888;151.150;2022-09-17T14:23:19;16.00;99.90
44047;DHT22;29713;-33.888;151.150;2022-09-17T14:25:51;15.90;99.90
44047;DHT22;29713;-33.888;151.150;2022-09-17T14:28:46;15.90;99.90
44047;DHT22;29713;-33.888;151.150;2022-09-17T14:31:24;16.00;99.90
44047;DHT22;29713;-33.888;151.150;2022-09-17T14:33:53;16.00;99.90
44047;DHT22;29713;-33.888;151.150;2022-09-17T14:36:21;16.00;99.90
44047;DHT22;29713;-33.888;151.150;2022-09-17T14:38:52;16.00;99.90
44047;DHT22;29713;-33.888;151.150;2022-09-17T14:41:34;16.00;99.90
44047;DHT22;29713;-33.888;151.150;2022-09-17T14:44:06;16.10;99.80
44047;DHT22;29713;-33.888;151.150;2022-09-17T14:47:11;16.10;99.90
44047;DHT22;29713;-33.888;151.150;2022-09-17T14:49:36;16.10;99.80
44047;DHT22;29713;-33.888;151.150;2022-09-17T14:57:36;16.10;99.80
44047;DHT22;29713;-33.888;151.150;2022-09-17T15:00:04;16.10;99.80
44047;DHT22;29713;-33.888;151.150;2022-09-17T15:02:42;16.10;99.90
44047;DHT22;29713;-33.888;151.150;2022-09-17T15:05:29;16.10;99.70
44047;DHT22;29713;-33.888;151.150;2022-09-17T15:08:13;16.10;99.90
44047;DHT22;29713;-33.888;151.150;2022-09-17T15:10:59;16.10;99.90
44047;DHT22;29713;-33.888;151.150;2022-09-17T15:13:36;16.10;99.90
44047;DHT22;29713;-33.888;151.150;2022-09-17T15:16:18;16.00;99.90
44047;DHT22;29713;-33.888;151.150;2022-09-17T15:18:57;16.00;99.90
44047;DHT22;29713;-33.888;151.150;2022-09-17T15:21:28;16.00;99.90
44047;DHT22;29713;-33.888;151.150;2022-09-17T15:24:05;16.00;99.90
44047;DHT22;29713;-33.888;151.150;2022-09-17T15:26:38;16.00;99.90
44047;DHT22;29713;-33.888;151.150;2022-09-17T15:29:06;15.90;99.90
44047;DHT22;29713;-33.888;151.150;2022-09-17T15:31:36;16.00;99.90
44047;DHT22;29713;-33.888;151.150;2022-09-17T15:34:03;15.90;99.90
44047;DHT22;29713;-33.888;151.150;2022-09-17T15:36:31;15.90;99.90
44047;DHT22;29713;-33.888;151.150;2022-09-17T15:38:58;15.90;99.90
44047;DHT22;29713;-33.888;151.150;2022-09-17T15:41:35;15.90;99.90
44047;DHT22;29713;-33.888;151.150;2022-09-17T15:44:09;15.80;99.90
44047;DHT22;29713;-33.888;151.150;2022-09-17T15:46:38;15.80;99.90
44047;DHT22;29713;-33.888;151.150;2022-09-17T15:49:27;15.70;99.90
44047;DHT22;29713;-33.888;151.150;2022-09-17T15:51:55;15.70;99.90
44047;DHT22;29713;-33.888;151.150;2022-09-17T15:54:41;15.70;99.90
44047;DHT22;29713;-33.888;151.150;2022-09-17T15:57:14;15.60;99.90
44047;DHT22;29713;-33.888;151.150;2022-09-17T15:59:42;15.60;99.90
44047;DHT22;29713;-33.888;151.150;2022-09-17T16:02:26;15.60;99.90
44047;DHT22;29713;-33.888;151.150;2022-09-17T16:07:49;15.60;99.90
44047;DHT22;29713;-33.888;151.150;2022-09-17T16:10:18;15.50;99.90
44047;DHT22;29713;-33.888;151.150;2022-09-17T16:12:48;15.50;99.90
44047;DHT22;29713;-33.888;151.150;2022-09-17T16:15:16;15.50;99.90
44047;DHT22;29713;-33.888;151.150;2022-09-17T16:17:47;15.50;99.90
44047;DHT22;29713;-33.888;151.150;2022-09-17T16:20:23;15.50;99.90
44047;DHT22;29713;-33.888;151.150;2022-09-17T16:22:52;15.50;99.90
44047;DHT22;29713;-33.888;151.150;2022-09-17T16:25:28;15.60;99.90
44047;DHT22;29713;-33.888;151.150;2022-09-17T16:28:13;15.60;99.90
44047;DHT22;29713;-33.888;151.150;2022-09-17T16:30:44;15.60;99.90
44047;DHT22;29713;-33.888;151.150;2022-09-17T16:33:14;15.60;99.90
44047;DHT22;29713;-33.888;151.150;2022-09-17T16:35:42;15.60;99.90
44047;DHT22;29713;-33.888;151.150;2022-09-17T16:38:11;15.60;99.90
44047;DHT22;29713;-33.888;151.150;2022-09-17T16:40:43;15.60;99.90
44047;DHT22;29713;-33.888;151.150;2022-09-17T16:43:12;15.60;99.90
44047;DHT22;29713;-33.888;151.150;2022-09-17T16:45:39;15.60;99.90
44047;DHT22;29713;-33.888;151.150;2022-09-17T16:48:07;15.60;99.90
44047;DHT22;29713;-33.888;151.150;2022-09-17T16:50:34;15.60;99.90
44047;DHT22;29713;-33.888;151.150;2022-09-17T16:53:06;15.60;99.90
44047;DHT22;29713;-33.888;151.150;2022-09-17T16:55:33;15.60;99.90
44047;DHT22;29713;-33.888;151.150;2022-09-17T16:58:01;15.60;99.90
44047;DHT22;29713;-33.888;151.150;2022-09-17T17:00:28;15.60;99.90
44047;DHT22;29713;-33.888;151.150;2022-09-17T17:02:56;15.60;99.90
44047;DHT22;29713;-33.888;151.150;2022-09-17T17:05:24;15.60;99.90
44047;DHT22;29713;-33.888;151.150;2022-09-17T17:07:52;15.50;99.90
44047;DHT22;29713;-33.888;151.150;2022-09-17T17:10:24;15.50;99.90
44047;DHT22;29713;-33.888;151.150;2022-09-17T17:12:54;15.40;99.90
44047;DHT22;29713;-33.888;151.150;2022-09-17T17:15:23;15.40;99.90
44047;DHT22;29713;-33.888;151.150;2022-09-17T17:17:50;15.40;99.90
44047;DHT22;29713;-33.888;151.150;2022-09-17T17:20:18;15.30;99.90
44047;DHT22;29713;-33.888;151.150;2022-09-17T17:22:45;15.30;99.90
44047;DHT22;29713;-33.888;151.150;2022-09-17T17:25:13;15.20;99.90
44047;DHT22;29713;-33.888;151.150;2022-09-17T17:27:41;15.00;99.90
44047;DHT22;29713;-33.888;151.150;2022-09-17T17:30:10;15.00;99.90
44047;DHT22;29713;-33.888;151.150;2022-09-17T17:32:42;14.90;99.90
44047;DHT22;29713;-33.888;151.150;2022-09-17T17:35:10;14.80;99.90
44047;DHT22;29713;-33.888;151.150;2022-09-17T17:37:37;14.80;99.90
44047;DHT22;29713;-33.888;151.150;2022-09-17T17:40:05;14.70;99.90
44047;DHT22;29713;-33.888;151.150;2022-09-17T17:42:35;14.60;99.90
44047;DHT22;29713;-33.888;151.150;2022-09-17T17:45:06;14.50;99.90
44047;DHT22;29713;-33.888;151.150;2022-09-17T17:47:34;14.50;99.90
44047;DHT22;29713;-33.888;151.150;2022-09-17T17:50:02;14.50;99.90
44047;DHT22;29713;-33.888;151.150;2022-09-17T17:52:29;14.40;99.90
44047;DHT22;29713;-33.888;151.150;2022-09-17T17:54:57;14.40;99.90
44047;DHT22;29713;-33.888;151.150;2022-09-17T17:57:24;14.30;99.90
44047;DHT22;29713;-33.888;151.150;2022-09-17T17:59:51;14.30;99.90
44047;DHT22;29713;-33.888;151.150;2022-09-17T18:02:19;14.20;99.90
44047;DHT22;29713;-33.888;151.150;2022-09-17T18:04:46;14.20;99.90
44047;DHT22;29713;-33.888;151.150;2022-09-17T18:07:13;14.20;99.90
44047;DHT22;29713;-33.888;151.150;2022-09-17T18:09:41;14.20;99.90
44047;DHT22;29713;-33.888;151.150;2022-09-17T18:12:08;14.10;99.90
44047;DHT22;29713;-33.888;151.150;2022-09-17T18:14:35;14.10;99.90
44047;DHT22;29713;-33.888;151.150;2022-09-17T18:17:02;14.10;99.90
44047;DHT22;29713;-33.888;151.150;2022-09-17T18:19:30;14.00;99.90
44047;DHT22;29713;-33.888;151.150;2022-09-17T18:21:57;14.00;99.90
44047;DHT22;29713;-33.888;151.150;2022-09-17T18:24:25;14.00;99.90
44047;DHT22;29713;-33.888;151.150;2022-09-17T18:26:52;13.90;99.90
44047;DHT22;29713;-33.888;151.150;2022-09-17T18:29:19;13.90;99.90
44047;DHT22;29713;-33.888;151.150;2022-09-17T18:31:47;13.90;99.90
44047;DHT22;29713;-33.888;151.150;2022-09-17T18:34:15;13.90;99.90
44047;DHT22;29713;-33.888;151.150;2022-09-17T18:36:43;13.80;99.90
44047;DHT22;29713;-33.888;151.150;2022-09-17T18:39:12;13.80;99.90
44047;DHT22;29713;-33.888;151.150;2022-09-17T18:41:41;13.70;99.90
44047;DHT22;29713;-33.888;151.150;2022-09-17T18:44:09;13.70;99.90
44047;DHT22;29713;-33.888;151.150;2022-09-17T18:46:37;13.60;99.90
44047;DHT22;29713;-33.888;151.150;2022-09-17T18:49:06;13.60;99.90
44047;DHT22;29713;-33.888;151.150;2022-09-17T18:51:34;13.60;99.90
44047;DHT22;29713;-33.888;151.150;2022-09-17T18:54:01;13.60;99.90
44047;DHT22;29713;-33.888;151.150;2022-09-17T18:56:30;13.50;99.90